Backus, Minnesota
Current Conditions -  °F | °C
As of 8:13 AM on Monday 22 Dec 2014 (Local Time) from KPWC Reporting Station
Drizzle Drizzle  
Wind Chill: 29°   Ceiling: 500
Heat Index: 36°   Visibility: 3mi
Dew Point: 36°   Wind: 8mph
Humidity: 100%   Direction: 130°SE
Pressure: 29.63"   Gusts: NA
Location:  46.82°N, 94.52°W
Report Text: KPWC 221413Z AUTO 13007KT 3SM -DZ OVC005 02/02 A2963 RMK AO2
Loading
Personal Weather Stations






























Interactive Weather Map New forecast layout! Learn more

10-Day Weather Forecast

Advertisements
Track Severe Weather on mobile